Flugplatz Lechfeld Airport

Bericht für ETSL

vom 18.01. um 17:20 UTC

Wind 9 kt aus 230°

Sichtweite 10 km oder mehr

gering bewölkt in 1500 ft

aufgebrochene Bewölkung in 4000 ft

Temperatur 0.0°C

Taupunkt -2.0°C

Luftfeuchtigkeit 86%

Luftdruck 1024 hPa

ETSL 181720Z 23009KT 9999 FEW015 BKN040 00/M02 Q1024 BLU BLU

Prognose für ETSL

vom 18.01. um 14:29 UTC

Zwischen 15:00 UTC und 00:00 UTC

Wind 10 kt aus 230°

Sichtweite 10 km oder mehr

keine signifikanten Wettererscheinungen

gering bewölkt in 2000 ft

bedeckt in 4000 ft

TAF ETSL 181429Z 1815/1824 23010KT 9999 NSW FEW020 OVC040 BY ETGL
Impressum